createdAt,value
2022-09-02T00:01:57.647Z,18.40
2022-09-02T00:04:28.232Z,18.40
2022-09-02T00:06:57.658Z,18.40
2022-09-02T00:09:27.592Z,18.40
2022-09-02T00:11:58.867Z,18.40
2022-09-02T00:14:32.035Z,18.40
2022-09-02T00:17:03.122Z,18.30
2022-09-02T00:19:33.388Z,18.30
2022-09-02T00:22:04.649Z,18.30
2022-09-02T00:24:34.400Z,18.20
2022-09-02T00:27:05.479Z,18.20
2022-09-02T00:29:34.883Z,18.20
2022-09-02T00:32:05.083Z,18.10
2022-09-02T00:34:34.307Z,18.00
2022-09-02T00:37:03.737Z,17.90
2022-09-02T00:39:33.111Z,17.80
2022-09-02T00:42:02.485Z,17.70
2022-09-02T00:44:34.014Z,17.60
2022-09-02T00:47:03.367Z,17.60
2022-09-02T00:49:36.109Z,17.60
2022-09-02T00:52:10.971Z,17.50
2022-09-02T00:54:48.552Z,17.50
2022-09-02T00:57:23.280Z,17.50
2022-09-02T01:00:09.383Z,17.40
2022-09-02T01:02:42.009Z,17.40
2022-09-02T01:05:15.937Z,17.40
2022-09-02T01:07:46.785Z,17.30
2022-09-02T01:10:21.562Z,17.30
2022-09-02T01:12:56.409Z,17.30
2022-09-02T01:15:29.024Z,17.20
2022-09-02T01:18:00.208Z,17.10
2022-09-02T01:20:29.803Z,17.10
2022-09-02T01:23:02.271Z,17.00
2022-09-02T01:25:34.633Z,17.00
2022-09-02T01:28:09.143Z,17.00
2022-09-02T01:30:42.162Z,17.00
2022-09-02T01:33:13.047Z,17.00
2022-09-02T01:35:42.390Z,16.90
2022-09-02T01:38:13.801Z,16.90
2022-09-02T01:40:44.127Z,16.90
2022-09-02T01:43:17.302Z,16.90
2022-09-02T01:45:52.589Z,16.80
2022-09-02T01:48:23.525Z,16.90
2022-09-02T01:50:58.600Z,16.90
2022-09-02T01:53:31.919Z,16.80
2022-09-02T01:56:02.045Z,16.90
2022-09-02T01:58:35.955Z,16.90
2022-09-02T02:01:07.983Z,16.90
2022-09-02T02:03:39.978Z,17.00
2022-09-02T02:06:15.044Z,17.00
2022-09-02T02:08:47.457Z,17.00
2022-09-02T02:11:21.385Z,16.90
2022-09-02T02:13:54.694Z,16.90
2022-09-02T02:16:24.235Z,16.80
2022-09-02T02:18:53.599Z,16.80
2022-09-02T02:21:23.083Z,16.70
2022-09-02T02:23:54.929Z,16.70
2022-09-02T02:26:24.619Z,16.70
2022-09-02T02:28:54.044Z,16.70
2022-09-02T02:31:24.542Z,16.70
2022-09-02T02:33:54.261Z,16.70
2022-09-02T02:36:23.923Z,16.70
2022-09-02T02:38:55.297Z,16.60
2022-09-02T02:41:25.720Z,16.70
2022-09-02T02:43:56.207Z,16.60
2022-09-02T02:46:27.006Z,16.60
2022-09-02T02:48:56.218Z,16.60
2022-09-02T02:51:25.416Z,16.70
2022-09-02T02:53:58.882Z,16.70
2022-09-02T02:56:30.416Z,16.70
2022-09-02T02:59:03.193Z,16.70
2022-09-02T03:01:35.567Z,16.70
2022-09-02T03:04:07.263Z,16.70
2022-09-02T03:06:36.814Z,16.70
2022-09-02T03:09:07.959Z,16.70
2022-09-02T03:11:40.857Z,16.60
2022-09-02T03:14:10.428Z,16.60
2022-09-02T03:16:40.067Z,16.50
2022-09-02T03:19:09.757Z,16.40
2022-09-02T03:21:39.673Z,16.30
2022-09-02T03:24:14.148Z,16.20
2022-09-02T03:26:44.309Z,16.10
2022-09-02T03:29:14.896Z,16.00
2022-09-02T03:31:46.001Z,16.00
2022-09-02T03:34:15.775Z,16.00
2022-09-02T03:36:45.199Z,15.90
2022-09-02T03:39:17.956Z,15.90
2022-09-02T03:41:50.390Z,15.90
2022-09-02T03:44:20.265Z,15.90
2022-09-02T03:46:49.708Z,15.80
2022-09-02T03:49:19.093Z,15.80
2022-09-02T03:51:48.435Z,15.70
2022-09-02T03:54:21.308Z,15.70
2022-09-02T03:56:51.086Z,15.60
2022-09-02T03:59:22.683Z,15.50
2022-09-02T04:01:52.612Z,15.50
2022-09-02T04:04:23.049Z,15.50
2022-09-02T04:06:55.350Z,15.50
2022-09-02T04:09:26.413Z,15.50
2022-09-02T04:11:56.091Z,15.50
2022-09-02T04:14:27.801Z,15.60
2022-09-02T04:16:58.548Z,15.50
2022-09-02T04:19:28.068Z,15.60
2022-09-02T04:21:58.562Z,15.60
2022-09-02T04:24:31.216Z,14.70
2022-09-02T04:27:04.240Z,15.60
2022-09-02T04:29:36.353Z,15.70
2022-09-02T04:32:05.975Z,15.70
2022-09-02T04:34:35.417Z,15.60
2022-09-02T04:37:06.041Z,15.60
2022-09-02T04:39:36.835Z,15.60
2022-09-02T04:42:06.677Z,15.50
2022-09-02T04:44:37.719Z,15.50
2022-09-02T04:47:07.333Z,15.50
2022-09-02T04:49:37.645Z,15.50
2022-09-02T04:52:07.938Z,15.50
2022-09-02T04:54:40.875Z,15.50
2022-09-02T04:57:10.818Z,15.50
2022-09-02T04:59:42.002Z,15.60
2022-09-02T05:02:13.913Z,15.60
2022-09-02T05:04:44.618Z,15.60
2022-09-02T05:07:23.950Z,15.60
2022-09-02T05:10:00.452Z,15.60
2022-09-02T05:12:35.251Z,15.60
2022-09-02T05:15:08.609Z,15.60
2022-09-02T05:17:39.293Z,15.50
2022-09-02T05:20:11.389Z,15.50
2022-09-02T05:22:43.364Z,15.40
2022-09-02T05:25:15.957Z,15.40
2022-09-02T05:27:48.661Z,15.50
2022-09-02T05:30:18.097Z,15.50
2022-09-02T05:32:50.004Z,15.50
2022-09-02T05:35:20.868Z,15.60
2022-09-02T05:38:00.085Z,15.70
2022-09-02T05:40:34.350Z,16.00
2022-09-02T05:43:04.158Z,16.40
2022-09-02T05:45:35.313Z,16.90
2022-09-02T05:48:27.618Z,17.40
2022-09-02T05:50:59.535Z,17.90
2022-09-02T05:53:30.503Z,18.50
2022-09-02T05:56:06.692Z,18.80
2022-09-02T05:58:39.661Z,19.20
2022-09-02T06:01:11.684Z,19.40
2022-09-02T06:03:42.523Z,19.70
2022-09-02T06:06:12.646Z,19.90
2022-09-02T06:08:44.167Z,20.10
2022-09-02T06:11:17.038Z,20.30
2022-09-02T06:13:48.834Z,20.40
2022-09-02T06:16:23.071Z,20.50
2022-09-02T06:18:53.860Z,20.60
2022-09-02T06:21:23.796Z,20.70
2022-09-02T06:23:55.342Z,20.80
2022-09-02T06:26:27.438Z,20.90
2022-09-02T06:28:59.974Z,21.10
2022-09-02T06:31:34.577Z,21.00
2022-09-02T06:34:05.854Z,21.00
2022-09-02T06:36:35.831Z,20.90
2022-09-02T06:39:05.635Z,20.90
2022-09-02T06:41:40.178Z,20.90
2022-09-02T06:44:16.075Z,20.90
2022-09-02T06:46:53.232Z,20.90
2022-09-02T06:49:26.036Z,21.00
2022-09-02T06:51:56.771Z,21.00
2022-09-02T06:54:31.493Z,20.90
2022-09-02T06:57:16.324Z,20.80
2022-09-02T06:59:46.643Z,20.90
2022-09-02T07:05:09.446Z,20.60
2022-09-02T07:07:42.675Z,20.60
2022-09-02T07:10:16.374Z,20.60
2022-09-02T07:12:52.864Z,20.50
2022-09-02T07:15:22.171Z,20.50
2022-09-02T07:17:52.395Z,20.30
2022-09-02T07:20:30.923Z,20.10
2022-09-02T07:23:05.791Z,20.00
2022-09-02T07:25:41.195Z,20.00
2022-09-02T07:28:16.968Z,19.90
2022-09-02T07:30:47.188Z,19.70
2022-09-02T07:33:22.705Z,19.80
2022-09-02T07:35:54.202Z,19.50
2022-09-02T07:38:24.763Z,19.60
2022-09-02T07:40:56.989Z,19.40
2022-09-02T07:43:31.292Z,19.40
2022-09-02T07:46:02.138Z,19.50
2022-09-02T07:48:32.416Z,19.60
2022-09-02T07:51:04.583Z,19.60
2022-09-02T07:53:36.044Z,19.60
2022-09-02T07:56:06.232Z,19.60
2022-09-02T07:58:37.226Z,19.60
2022-09-02T08:01:07.042Z,19.40
2022-09-02T08:03:40.350Z,19.30
2022-09-02T08:06:12.335Z,19.20
2022-09-02T08:08:42.142Z,19.30
2022-09-02T08:11:12.813Z,19.40
2022-09-02T08:13:44.527Z,19.40
2022-09-02T08:16:16.633Z,19.50
2022-09-02T08:18:48.060Z,19.60
2022-09-02T08:21:17.839Z,19.70
2022-09-02T08:23:51.443Z,19.80
2022-09-02T08:26:21.522Z,19.80
2022-09-02T08:28:52.957Z,20.00
2022-09-02T08:31:22.537Z,20.10
2022-09-02T08:33:52.101Z,20.10
2022-09-02T08:36:21.532Z,20.10
2022-09-02T08:38:50.921Z,20.20
2022-09-02T08:41:27.629Z,20.10
2022-09-02T08:44:05.144Z,20.20
2022-09-02T08:46:36.039Z,20.10
2022-09-02T08:49:10.169Z,20.20
2022-09-02T08:51:53.507Z,20.20
2022-09-02T08:54:31.096Z,20.20
2022-09-02T08:57:00.624Z,20.20
2022-09-02T08:59:32.942Z,20.40
2022-09-02T09:02:17.615Z,20.40
2022-09-02T09:05:18.266Z,20.50
2022-09-02T09:08:02.527Z,20.70
2022-09-02T09:10:41.095Z,20.60
2022-09-02T09:13:37.208Z,20.60
2022-09-02T09:16:22.640Z,20.80
2022-09-02T09:19:03.819Z,20.70
2022-09-02T09:21:35.529Z,20.70
2022-09-02T09:24:27.830Z,20.80
2022-09-02T09:26:57.903Z,20.80
2022-09-02T09:29:27.315Z,20.90
2022-09-02T09:32:01.559Z,20.90
2022-09-02T09:35:00.122Z,21.00
2022-09-02T09:37:38.935Z,21.10
2022-09-02T09:40:32.737Z,21.20
2022-09-02T09:43:15.938Z,21.40
2022-09-02T09:45:47.949Z,21.50
2022-09-02T09:48:27.780Z,21.50
2022-09-02T09:51:16.000Z,21.50
2022-09-02T09:53:45.872Z,21.60
2022-09-02T09:56:37.347Z,21.80
2022-09-02T09:59:10.772Z,22.00
2022-09-02T10:01:40.178Z,21.90
2022-09-02T10:04:39.153Z,22.00
2022-09-02T10:07:04.196Z,21.90
2022-09-02T10:09:40.060Z,21.90
2022-09-02T10:12:12.507Z,22.00
2022-09-02T10:14:46.880Z,22.20
2022-09-02T10:17:36.743Z,22.20
2022-09-02T10:20:18.129Z,22.40
2022-09-02T10:23:21.851Z,22.50
2022-09-02T10:26:07.299Z,22.60
2022-09-02T10:29:20.653Z,22.70
2022-09-02T10:32:01.610Z,22.70
2022-09-02T10:34:40.302Z,22.80
2022-09-02T10:37:19.564Z,22.90
2022-09-02T10:40:09.597Z,22.90
2022-09-02T10:42:54.255Z,22.90
2022-09-02T10:45:32.720Z,22.90
2022-09-02T10:48:31.506Z,23.10
2022-09-02T10:51:08.203Z,23.30
2022-09-02T10:54:03.737Z,23.30
2022-09-02T10:56:39.749Z,23.40
2022-09-02T10:59:15.917Z,23.30
2022-09-02T11:01:53.097Z,23.40
2022-09-02T11:04:32.609Z,23.40
2022-09-02T11:07:06.108Z,23.60
2022-09-02T11:09:43.037Z,23.60
2022-09-02T11:12:18.487Z,23.80
2022-09-02T11:15:01.832Z,23.80
2022-09-02T11:17:39.784Z,23.80
2022-09-02T11:20:18.038Z,23.80
2022-09-02T11:22:56.298Z,23.80
2022-09-02T11:25:36.132Z,23.70
2022-09-02T11:28:22.795Z,23.70
2022-09-02T11:31:00.897Z,23.80
2022-09-02T11:33:41.638Z,23.80
2022-09-02T11:36:12.198Z,23.80
2022-09-02T11:38:48.720Z,23.80
2022-09-02T11:41:38.206Z,24.00
2022-09-02T11:44:32.988Z,24.00
2022-09-02T11:47:33.528Z,24.00
2022-09-02T11:50:25.992Z,24.00
2022-09-02T11:53:13.605Z,23.90
2022-09-02T11:55:47.408Z,23.90
2022-09-02T12:01:29.757Z,23.90
2022-09-02T12:04:56.020Z,24.00
2022-09-02T12:07:26.608Z,24.10
2022-09-02T12:09:59.879Z,24.20
2022-09-02T12:13:08.360Z,24.30
2022-09-02T12:15:40.691Z,24.30
2022-09-02T12:18:31.037Z,24.30
2022-09-02T12:21:16.278Z,24.40
2022-09-02T12:24:27.253Z,24.60
2022-09-02T12:27:25.099Z,24.50
2022-09-02T12:29:55.698Z,24.50
2022-09-02T12:33:13.374Z,24.40
2022-09-02T12:35:58.352Z,24.50
2022-09-02T12:38:34.148Z,24.50
2022-09-02T12:41:27.601Z,24.50
2022-09-02T12:44:22.378Z,24.50
2022-09-02T12:47:07.657Z,24.60
2022-09-02T12:49:49.595Z,24.70
2022-09-02T12:52:49.533Z,24.60
2022-09-02T12:55:25.759Z,24.60
2022-09-02T12:58:10.326Z,24.70
2022-09-02T13:00:58.794Z,24.80
2022-09-02T13:04:22.526Z,24.70
2022-09-02T13:07:49.159Z,24.50
2022-09-02T13:11:15.641Z,24.40
2022-09-02T13:14:32.353Z,24.40
2022-09-02T13:17:41.249Z,24.50
2022-09-02T13:20:56.280Z,24.60
2022-09-02T13:24:40.749Z,24.50
2022-09-02T13:27:55.948Z,24.60
2022-09-02T13:30:40.332Z,24.60
2022-09-02T13:33:11.758Z,24.70
2022-09-02T13:35:42.632Z,24.80
2022-09-02T13:38:16.430Z,24.80
2022-09-02T13:40:48.208Z,25.00
2022-09-02T13:43:26.807Z,24.90
2022-09-02T13:46:02.027Z,24.90
2022-09-02T13:48:34.105Z,24.90
2022-09-02T13:51:14.808Z,24.90
2022-09-02T13:54:18.694Z,24.90
2022-09-02T13:56:38.410Z,24.90
2022-09-02T13:59:09.077Z,25.00
2022-09-02T14:01:40.623Z,24.90
2022-09-02T14:04:15.580Z,25.00
2022-09-02T14:06:48.824Z,25.00
2022-09-02T14:09:22.620Z,25.00
2022-09-02T14:11:52.998Z,25.00
2022-09-02T14:14:26.169Z,25.00
2022-09-02T14:17:23.456Z,25.00
2022-09-02T14:19:53.375Z,25.10
2022-09-02T14:22:30.153Z,25.00
2022-09-02T14:24:59.430Z,25.00
2022-09-02T14:27:28.813Z,25.00
2022-09-02T14:30:00.197Z,25.00
2022-09-02T14:32:30.315Z,25.00
2022-09-02T14:35:22.287Z,25.00
2022-09-02T14:37:57.800Z,25.10
2022-09-02T14:40:35.472Z,25.10
2022-09-02T14:43:06.022Z,25.00
2022-09-02T14:45:36.699Z,25.00
2022-09-02T14:48:17.388Z,24.80
2022-09-02T14:50:46.789Z,24.70
2022-09-02T14:53:22.646Z,24.70
2022-09-02T14:55:54.529Z,24.80
2022-09-02T14:58:27.319Z,24.80
2022-09-02T15:01:01.292Z,24.90
2022-09-02T15:03:32.539Z,24.90
2022-09-02T15:06:01.662Z,24.90
2022-09-02T15:08:30.900Z,25.00
2022-09-02T15:11:02.080Z,25.00
2022-09-02T15:13:34.205Z,24.90
2022-09-02T15:16:05.759Z,24.80
2022-09-02T15:18:34.939Z,24.80
2022-09-02T15:21:05.268Z,24.80
2022-09-02T15:23:34.974Z,24.80
2022-09-02T15:26:05.845Z,24.80
2022-09-02T15:28:35.281Z,24.70
2022-09-02T15:31:06.287Z,24.70
2022-09-02T15:33:36.048Z,24.70
2022-09-02T15:36:09.317Z,24.70
2022-09-02T15:38:38.795Z,24.60
2022-09-02T15:41:13.819Z,24.60
2022-09-02T15:43:43.894Z,24.70
2022-09-02T15:46:27.680Z,24.80
2022-09-02T15:49:02.798Z,24.80
2022-09-02T15:51:32.894Z,24.90
2022-09-02T15:54:04.287Z,24.80
2022-09-02T15:56:35.523Z,24.80
2022-09-02T15:59:10.818Z,24.80
2022-09-02T16:01:43.694Z,24.90
2022-09-02T16:04:14.587Z,24.90
2022-09-02T16:06:47.762Z,24.90
2022-09-02T16:09:19.318Z,24.80
2022-09-02T16:11:50.465Z,24.80
2022-09-02T16:14:21.399Z,24.90
2022-09-02T16:16:54.955Z,24.70
2022-09-02T16:19:29.832Z,24.50
2022-09-02T16:21:59.594Z,24.50
2022-09-02T16:24:29.083Z,24.40
2022-09-02T16:26:58.689Z,24.40
2022-09-02T16:29:29.785Z,24.40
2022-09-02T16:32:24.521Z,24.40
2022-09-02T16:34:50.071Z,24.40
2022-09-02T16:37:19.423Z,24.30
2022-09-02T16:39:48.787Z,24.30
2022-09-02T16:42:17.964Z,24.20
2022-09-02T16:44:47.047Z,24.20
2022-09-02T16:47:22.120Z,24.30
2022-09-02T16:49:51.657Z,24.40
2022-09-02T16:52:20.792Z,24.30
2022-09-02T16:54:49.885Z,24.30
2022-09-02T16:57:19.028Z,24.30
2022-09-02T16:59:48.105Z,24.30
2022-09-02T17:02:17.263Z,24.30
2022-09-02T17:04:47.734Z,24.30
2022-09-02T17:07:16.853Z,24.30
2022-09-02T17:09:46.086Z,24.30
2022-09-02T17:12:15.137Z,24.30
2022-09-02T17:14:44.518Z,24.40
2022-09-02T17:17:17.216Z,24.20
2022-09-02T17:19:47.648Z,24.20
2022-09-02T17:22:16.679Z,24.20
2022-09-02T17:24:46.251Z,24.20
2022-09-02T17:27:16.181Z,24.20
2022-09-02T17:29:49.054Z,24.10
2022-09-02T17:32:19.419Z,24.10
2022-09-02T17:34:50.969Z,24.00
2022-09-02T17:37:21.262Z,24.00
2022-09-02T17:39:51.250Z,24.00
2022-09-02T17:42:21.444Z,23.90
2022-09-02T17:44:51.476Z,23.80
2022-09-02T17:47:23.069Z,23.80
2022-09-02T17:49:53.930Z,23.90
2022-09-02T17:52:25.818Z,23.80
2022-09-02T17:54:55.999Z,23.80
2022-09-02T17:57:42.915Z,23.70
2022-09-02T18:00:14.481Z,23.70
2022-09-02T18:03:14.014Z,23.70
2022-09-02T18:06:06.823Z,23.60
2022-09-02T18:08:48.102Z,23.60
2022-09-02T18:11:17.882Z,23.60
2022-09-02T18:13:58.487Z,23.40
2022-09-02T18:16:33.509Z,23.40
2022-09-02T18:19:16.240Z,23.40
2022-09-02T18:22:07.253Z,23.40
2022-09-02T18:24:59.994Z,23.30
2022-09-02T18:27:43.594Z,23.20
2022-09-02T18:30:27.359Z,23.20
2022-09-02T18:33:14.450Z,23.20
2022-09-02T18:35:55.701Z,23.00
2022-09-02T18:38:38.807Z,23.00
2022-09-02T18:41:24.755Z,23.10
2022-09-02T18:44:07.675Z,23.10
2022-09-02T18:46:52.831Z,23.20
2022-09-02T18:49:24.629Z,23.20
2022-09-02T18:52:00.186Z,23.10
2022-09-02T18:54:35.734Z,23.00
2022-09-02T18:57:08.667Z,22.90
2022-09-02T18:59:44.855Z,22.90
2022-09-02T19:02:26.927Z,22.80
2022-09-02T19:04:59.278Z,22.70
2022-09-02T19:07:48.274Z,22.70
2022-09-02T19:10:18.761Z,22.60
2022-09-02T19:12:47.877Z,22.60
2022-09-02T19:15:17.510Z,22.50
2022-09-02T19:17:46.883Z,22.40
2022-09-02T19:20:17.681Z,22.30
2022-09-02T19:22:52.568Z,22.10
2022-09-02T19:25:27.164Z,22.00
2022-09-02T19:28:02.309Z,21.90
2022-09-02T19:30:37.311Z,21.90
2022-09-02T19:33:09.257Z,21.80
2022-09-02T19:35:39.105Z,21.70
2022-09-02T19:38:08.602Z,21.70
2022-09-02T19:40:39.957Z,21.70
2022-09-02T19:43:12.922Z,21.70
2022-09-02T19:45:42.294Z,21.60
2022-09-02T19:48:12.364Z,21.60
2022-09-02T19:50:43.877Z,21.70
2022-09-02T19:53:22.116Z,21.70
2022-09-02T19:55:52.824Z,21.70
2022-09-02T19:58:22.266Z,21.70
2022-09-02T20:00:53.822Z,21.70
2022-09-02T20:03:23.008Z,21.60
2022-09-02T20:05:52.850Z,21.50
2022-09-02T20:08:24.420Z,21.50
2022-09-02T20:10:57.309Z,21.40
2022-09-02T20:13:28.162Z,21.30
2022-09-02T20:15:59.382Z,21.30
2022-09-02T20:18:29.223Z,21.30
2022-09-02T20:21:00.837Z,21.30
2022-09-02T20:23:33.563Z,21.20
2022-09-02T20:26:23.356Z,21.20
2022-09-02T20:29:09.110Z,21.20
2022-09-02T20:31:55.731Z,21.20
2022-09-02T20:34:44.141Z,21.30
2022-09-02T20:37:27.633Z,21.20
2022-09-02T20:40:23.332Z,21.20
2022-09-02T20:43:32.407Z,21.10
2022-09-02T20:46:14.480Z,21.10
2022-09-02T20:49:02.665Z,21.10
2022-09-02T20:51:42.031Z,21.10
2022-09-02T20:54:25.399Z,21.00
2022-09-02T20:57:06.882Z,21.00
2022-09-02T20:59:51.107Z,21.00
2022-09-02T21:02:26.887Z,21.00
2022-09-02T21:05:01.730Z,21.00
2022-09-02T21:07:45.471Z,21.00
2022-09-02T21:10:23.593Z,20.90
2022-09-02T21:12:59.238Z,20.90
2022-09-02T21:15:34.723Z,20.90
2022-09-02T21:18:16.062Z,20.90
2022-09-02T21:20:50.419Z,20.90
2022-09-02T21:23:28.374Z,20.90
2022-09-02T21:26:00.971Z,20.90
2022-09-02T21:28:37.540Z,20.80
2022-09-02T21:31:16.093Z,20.80
2022-09-02T21:33:46.577Z,20.70
2022-09-02T21:36:28.357Z,20.70
2022-09-02T21:39:03.974Z,20.70
2022-09-02T21:41:37.754Z,20.70
2022-09-02T21:44:15.522Z,20.80
2022-09-02T21:47:01.289Z,20.80
2022-09-02T21:49:49.417Z,20.80
2022-09-02T21:52:33.642Z,20.80
2022-09-02T21:55:13.750Z,20.80
2022-09-02T21:58:15.810Z,20.90
2022-09-02T22:00:50.465Z,20.90
2022-09-02T22:03:37.048Z,20.90
2022-09-02T22:06:14.304Z,20.90
2022-09-02T22:08:50.467Z,20.90
2022-09-02T22:11:32.548Z,20.80
2022-09-02T22:14:09.041Z,20.80
2022-09-02T22:16:51.032Z,20.70
2022-09-02T22:19:28.082Z,20.70
2022-09-02T22:22:04.570Z,20.60
2022-09-02T22:24:37.195Z,20.50
2022-09-02T22:27:12.943Z,20.50
2022-09-02T22:29:47.707Z,20.40
2022-09-02T22:32:20.454Z,20.40
2022-09-02T22:35:00.650Z,20.30
2022-09-02T22:37:40.032Z,20.20
2022-09-02T22:40:14.879Z,20.10
2022-09-02T22:42:47.201Z,20.00
2022-09-02T22:45:38.241Z,20.00
2022-09-02T22:48:30.992Z,19.90
2022-09-02T22:51:25.433Z,19.90
2022-09-02T22:53:54.681Z,19.80
2022-09-02T22:56:36.311Z,19.80
2022-09-02T22:59:29.299Z,19.70
2022-09-02T23:02:12.496Z,19.80
2022-09-02T23:05:04.719Z,19.70
2022-09-02T23:07:35.170Z,19.60
2022-09-02T23:10:18.917Z,19.70
2022-09-02T23:12:56.097Z,19.70
2022-09-02T23:15:32.890Z,19.70
2022-09-02T23:18:10.474Z,19.70
2022-09-02T23:20:48.319Z,19.70
2022-09-02T23:23:38.790Z,19.60
2022-09-02T23:26:33.110Z,19.60
2022-09-02T23:29:18.759Z,19.50
2022-09-02T23:32:39.642Z,19.40
2022-09-02T23:35:21.398Z,19.40
2022-09-02T23:38:10.235Z,19.40
2022-09-02T23:40:44.612Z,19.40
2022-09-02T23:43:16.566Z,19.40
2022-09-02T23:45:47.324Z,19.40
2022-09-02T23:48:39.629Z,19.30
2022-09-02T23:51:19.286Z,19.30
2022-09-02T23:54:09.838Z,19.20
2022-09-02T23:57:02.651Z,19.20
